sensor_id;sensor_type;location;lat;lon;timestamp;pressure;altitude;pressure_sealevel;temperature
71630;BMP280;59479;51.902;8.212;2023-05-07T00:01:28;101042.59;;;17.52
71630;BMP280;59479;51.902;8.212;2023-05-07T00:03:53;101043.53;;;17.48
71630;BMP280;59479;51.902;8.212;2023-05-07T00:06:18;101050.25;;;17.51
71630;BMP280;59479;51.902;8.212;2023-05-07T00:08:44;101055.34;;;17.49
71630;BMP280;59479;51.902;8.212;2023-05-07T00:11:10;101059.59;;;17.50
71630;BMP280;59479;51.902;8.212;2023-05-07T00:13:38;101051.13;;;17.50
71630;BMP280;59479;51.902;8.212;2023-05-07T00:16:04;101062.22;;;17.46
71630;BMP280;59479;51.902;8.212;2023-05-07T00:18:29;101062.16;;;17.49
71630;BMP280;59479;51.902;8.212;2023-05-07T00:20:55;101065.59;;;17.48
71630;BMP280;59479;51.902;8.212;2023-05-07T00:23:21;101053.78;;;17.44
71630;BMP280;59479;51.902;8.212;2023-05-07T00:25:48;101049.66;;;17.40
71630;BMP280;59479;51.902;8.212;2023-05-07T00:28:14;101053.09;;;17.36
71630;BMP280;59479;51.902;8.212;2023-05-07T00:30:39;101043.78;;;17.38
71630;BMP280;59479;51.902;8.212;2023-05-07T00:33:05;101052.38;;;17.31
71630;BMP280;59479;51.902;8.212;2023-05-07T00:35:30;101046.50;;;17.27
71630;BMP280;59479;51.902;8.212;2023-05-07T00:37:55;101050.72;;;17.28
71630;BMP280;59479;51.902;8.212;2023-05-07T00:40:21;101054.25;;;17.23
71630;BMP280;59479;51.902;8.212;2023-05-07T00:42:46;101050.00;;;17.24
71630;BMP280;59479;51.902;8.212;2023-05-07T00:45:13;101056.84;;;17.20
71630;BMP280;59479;51.902;8.212;2023-05-07T00:47:39;101065.47;;;17.10
71630;BMP280;59479;51.902;8.212;2023-05-07T00:50:08;101056.16;;;17.09
71630;BMP280;59479;51.902;8.212;2023-05-07T00:52:35;101061.25;;;17.09
71630;BMP280;59479;51.902;8.212;2023-05-07T00:55:04;101054.50;;;17.10
71630;BMP280;59479;51.902;8.212;2023-05-07T00:57:32;101063.72;;;17.12
71630;BMP280;59479;51.902;8.212;2023-05-07T00:59:58;101057.00;;;17.11
71630;BMP280;59479;51.902;8.212;2023-05-07T01:02:23;101065.47;;;17.10
71630;BMP280;59479;51.902;8.212;2023-05-07T01:04:49;101065.41;;;17.13
71630;BMP280;59479;51.902;8.212;2023-05-07T01:07:15;101057.13;;;17.04
71630;BMP280;59479;51.902;8.212;2023-05-07T01:09:40;101064.78;;;17.02
71630;BMP280;59479;51.902;8.212;2023-05-07T01:12:06;101062.22;;;17.04
71630;BMP280;59479;51.902;8.212;2023-05-07T01:14:32;101060.50;;;17.04
71630;BMP280;59479;51.902;8.212;2023-05-07T01:16:58;101067.25;;;17.05
71630;BMP280;59479;51.902;8.212;2023-05-07T01:19:23;101057.97;;;17.04
71630;BMP280;59479;51.902;8.212;2023-05-07T01:21:51;101069.84;;;17.02
71630;BMP280;59479;51.902;8.212;2023-05-07T01:24:17;101065.50;;;17.09
71630;BMP280;59479;51.902;8.212;2023-05-07T01:26:43;101070.66;;;17.04
71630;BMP280;59479;51.902;8.212;2023-05-07T01:29:09;101063.19;;;16.98
71630;BMP280;59479;51.902;8.212;2023-05-07T01:31:36;101053.88;;;16.97
71630;BMP280;59479;51.902;8.212;2023-05-07T01:34:03;101052.38;;;16.86
71630;BMP280;59479;51.902;8.212;2023-05-07T01:36:30;101056.59;;;16.88
71630;BMP280;59479;51.902;8.212;2023-05-07T01:38:56;101061.59;;;16.93
71630;BMP280;59479;51.902;8.212;2023-05-07T01:41:23;101056.56;;;16.90
71630;BMP280;59479;51.902;8.212;2023-05-07T01:43:49;101062.47;;;16.90
71630;BMP280;59479;51.902;8.212;2023-05-07T01:46:17;101054.91;;;16.87
71630;BMP280;59479;51.902;8.212;2023-05-07T01:48:43;101064.38;;;16.80
71630;BMP280;59479;51.902;8.212;2023-05-07T01:51:11;101064.25;;;16.85
71630;BMP280;59479;51.902;8.212;2023-05-07T01:53:37;101059.19;;;16.85
71630;BMP280;59479;51.902;8.212;2023-05-07T01:56:03;101054.38;;;16.71
71630;BMP280;59479;51.902;8.212;2023-05-07T01:58:28;101051.84;;;16.71
71630;BMP280;59479;51.902;8.212;2023-05-07T02:00:54;101051.00;;;16.70
71630;BMP280;59479;51.902;8.212;2023-05-07T02:03:19;101055.25;;;16.70
71630;BMP280;59479;51.902;8.212;2023-05-07T02:05:44;101061.25;;;16.64
71630;BMP280;59479;51.902;8.212;2023-05-07T02:08:10;101062.00;;;16.71
71630;BMP280;59479;51.902;8.212;2023-05-07T02:10:35;101073.16;;;16.62
71630;BMP280;59479;51.902;8.212;2023-05-07T02:13:01;101062.03;;;16.68
71630;BMP280;59479;51.902;8.212;2023-05-07T02:15:27;101062.03;;;16.68
71630;BMP280;59479;51.902;8.212;2023-05-07T02:20:25;101061.25;;;16.66
71630;BMP280;59479;51.902;8.212;2023-05-07T02:22:50;101061.41;;;16.57
71630;BMP280;59479;51.902;8.212;2023-05-07T02:25:15;101069.78;;;16.62
71630;BMP280;59479;51.902;8.212;2023-05-07T02:27:41;101067.25;;;16.62
71630;BMP280;59479;51.902;8.212;2023-05-07T02:30:06;101062.38;;;16.50
71630;BMP280;59479;51.902;8.212;2023-05-07T02:32:32;101067.50;;;16.47
71630;BMP280;59479;51.902;8.212;2023-05-07T02:34:57;101074.31;;;16.45
71630;BMP280;59479;51.902;8.212;2023-05-07T02:37:22;101069.28;;;16.42
71630;BMP280;59479;51.902;8.212;2023-05-07T02:39:48;101070.97;;;16.43
71630;BMP280;59479;51.902;8.212;2023-05-07T02:42:13;101073.56;;;16.40
71630;BMP280;59479;51.902;8.212;2023-05-07T02:44:38;101075.25;;;16.40
71630;BMP280;59479;51.902;8.212;2023-05-07T02:47:04;101071.84;;;16.40
71630;BMP280;59479;51.902;8.212;2023-05-07T02:49:30;101077.78;;;16.40
71630;BMP280;59479;51.902;8.212;2023-05-07T02:51:55;101078.66;;;16.37
71630;BMP280;59479;51.902;8.212;2023-05-07T02:54:21;101077.03;;;16.35
71630;BMP280;59479;51.902;8.212;2023-05-07T02:56:46;101077.03;;;16.35
71630;BMP280;59479;51.902;8.212;2023-05-07T02:59:11;101081.44;;;16.22
71630;BMP280;59479;51.902;8.212;2023-05-07T03:01:36;101075.50;;;16.25
71630;BMP280;59479;51.902;8.212;2023-05-07T03:04:02;101072.06;;;16.27
71630;BMP280;59479;51.902;8.212;2023-05-07T03:06:27;101069.56;;;16.24
71630;BMP280;59479;51.902;8.212;2023-05-07T03:08:52;101059.56;;;16.15
71630;BMP280;59479;51.902;8.212;2023-05-07T03:11:18;101060.34;;;16.19
71630;BMP280;59479;51.902;8.212;2023-05-07T03:13:43;101066.38;;;16.10
71630;BMP280;59479;51.902;8.212;2023-05-07T03:16:08;101059.56;;;16.14
71630;BMP280;59479;51.902;8.212;2023-05-07T03:18:34;101061.28;;;16.13
71630;BMP280;59479;51.902;8.212;2023-05-07T03:20:59;101058.63;;;16.19
71630;BMP280;59479;51.902;8.212;2023-05-07T03:23:24;101054.56;;;16.09
71630;BMP280;59479;51.902;8.212;2023-05-07T03:25:50;101055.47;;;16.07
71630;BMP280;59479;51.902;8.212;2023-05-07T03:28:15;101063.03;;;16.08
71630;BMP280;59479;51.902;8.212;2023-05-07T03:30:40;101064.91;;;15.96
71630;BMP280;59479;51.902;8.212;2023-05-07T03:33:05;101066.53;;;16.01
71630;BMP280;59479;51.902;8.212;2023-05-07T03:35:31;101066.38;;;16.10
71630;BMP280;59479;51.902;8.212;2023-05-07T03:37:56;101066.53;;;16.01
71630;BMP280;59479;51.902;8.212;2023-05-07T03:40:21;101073.22;;;16.05
71630;BMP280;59479;51.902;8.212;2023-05-07T03:42:47;101067.41;;;15.99
71630;BMP280;59479;51.902;8.212;2023-05-07T03:45:12;101070.88;;;15.95
71630;BMP280;59479;51.902;8.212;2023-05-07T03:47:37;101072.50;;;15.97
71630;BMP280;59479;51.902;8.212;2023-05-07T03:50:03;101073.28;;;16.02
71630;BMP280;59479;51.902;8.212;2023-05-07T03:52:28;101073.41;;;15.94
71630;BMP280;59479;51.902;8.212;2023-05-07T03:54:54;101075.97;;;15.91
71630;BMP280;59479;51.902;8.212;2023-05-07T03:57:19;101083.59;;;15.91
71630;BMP280;59479;51.902;8.212;2023-05-07T03:59:45;101082.75;;;15.90
71630;BMP280;59479;51.902;8.212;2023-05-07T04:02:10;101090.38;;;15.90
71630;BMP280;59479;51.902;8.212;2023-05-07T04:04:36;101087.88;;;15.86
71630;BMP280;59479;51.902;8.212;2023-05-07T04:07:01;101100.59;;;15.83
71630;BMP280;59479;51.902;8.212;2023-05-07T04:09:26;101100.66;;;15.80
71630;BMP280;59479;51.902;8.212;2023-05-07T04:11:52;101092.94;;;15.87
71630;BMP280;59479;51.902;8.212;2023-05-07T04:14:17;101095.53;;;15.83
71630;BMP280;59479;51.902;8.212;2023-05-07T04:16:42;101114.97;;;15.84
71630;BMP280;59479;51.902;8.212;2023-05-07T04:19:08;101109.06;;;15.82
71630;BMP280;59479;51.902;8.212;2023-05-07T04:21:33;101110.03;;;15.75
71630;BMP280;59479;51.902;8.212;2023-05-07T04:23:58;101109.13;;;15.79
71630;BMP280;59479;51.902;8.212;2023-05-07T04:26:24;101109.16;;;15.76
71630;BMP280;59479;51.902;8.212;2023-05-07T04:28:49;101115.03;;;15.78
71630;BMP280;59479;51.902;8.212;2023-05-07T04:31:15;101112.56;;;15.73
71630;BMP280;59479;51.902;8.212;2023-05-07T04:33:40;101104.88;;;15.78
71630;BMP280;59479;51.902;8.212;2023-05-07T04:36:05;101110.91;;;15.71
71630;BMP280;59479;51.902;8.212;2023-05-07T04:38:31;101113.53;;;15.65
71630;BMP280;59479;51.902;8.212;2023-05-07T04:40:57;101100.91;;;15.62
71630;BMP280;59479;51.902;8.212;2023-05-07T04:43:23;101111.88;;;15.62
71630;BMP280;59479;51.902;8.212;2023-05-07T04:45:50;101107.72;;;15.57
71630;BMP280;59479;51.902;8.212;2023-05-07T04:48:15;101109.41;;;15.58
71630;BMP280;59479;51.902;8.212;2023-05-07T04:50:41;101117.06;;;15.52
71630;BMP280;59479;51.902;8.212;2023-05-07T04:53:06;101118.75;;;15.53
71630;BMP280;59479;51.902;8.212;2023-05-07T04:55:31;101120.41;;;15.54
71630;BMP280;59479;51.902;8.212;2023-05-07T04:57:57;101122.91;;;15.57
71630;BMP280;59479;51.902;8.212;2023-05-07T05:00:22;101122.91;;;15.57
71630;BMP280;59479;51.902;8.212;2023-05-07T05:02:48;101120.53;;;15.47
71630;BMP280;59479;51.902;8.212;2023-05-07T05:05:13;101128.28;;;15.35
71630;BMP280;59479;51.902;8.212;2023-05-07T05:07:38;101124.88;;;15.34
71630;BMP280;59479;51.902;8.212;2023-05-07T05:10:05;101124.81;;;15.40
71630;BMP280;59479;51.902;8.212;2023-05-07T05:12:31;101126.59;;;15.31
71630;BMP280;59479;51.902;8.212;2023-05-07T05:14:56;101125.00;;;15.25
71630;BMP280;59479;51.902;8.212;2023-05-07T05:17:22;101128.38;;;15.24
71630;BMP280;59479;51.902;8.212;2023-05-07T05:19:47;101126.72;;;15.23
71630;BMP280;59479;51.902;8.212;2023-05-07T05:22:12;101121.56;;;15.29
71630;BMP280;59479;51.902;8.212;2023-05-07T05:24:38;101130.03;;;15.28
71630;BMP280;59479;51.902;8.212;2023-05-07T05:27:03;101129.91;;;15.37
71630;BMP280;59479;51.902;8.212;2023-05-07T05:29:29;101138.31;;;15.39
71630;BMP280;59479;51.902;8.212;2023-05-07T05:31:55;101140.94;;;15.33
71630;BMP280;59479;51.902;8.212;2023-05-07T05:34:20;101135.00;;;15.34
71630;BMP280;59479;51.902;8.212;2023-05-07T05:36:46;101128.44;;;15.21
71630;BMP280;59479;51.902;8.212;2023-05-07T05:39:12;101131.81;;;15.17
71630;BMP280;59479;51.902;8.212;2023-05-07T05:41:37;101131.78;;;15.23
71630;BMP280;59479;51.902;8.212;2023-05-07T05:44:03;101136.84;;;15.23
71630;BMP280;59479;51.902;8.212;2023-05-07T05:46:29;101137.69;;;15.19
71630;BMP280;59479;51.902;8.212;2023-05-07T05:48:55;101136.88;;;15.19
71630;BMP280;59479;51.902;8.212;2023-05-07T05:51:21;101145.28;;;15.22
71630;BMP280;59479;51.902;8.212;2023-05-07T05:53:46;101157.09;;;15.23
71630;BMP280;59479;51.902;8.212;2023-05-07T05:56:12;101146.84;;;15.32
71630;BMP280;59479;51.902;8.212;2023-05-07T05:58:37;101147.78;;;15.27
71630;BMP280;59479;51.902;8.212;2023-05-07T06:01:02;101154.44;;;15.35
71630;BMP280;59479;51.902;8.212;2023-05-07T06:03:28;101148.53;;;15.33
71630;BMP280;59479;51.902;8.212;2023-05-07T06:05:53;101152.69;;;15.39
71630;BMP280;59479;51.902;8.212;2023-05-07T06:08:18;101155.22;;;15.39
71630;BMP280;59479;51.902;8.212;2023-05-07T06:10:44;101148.56;;;15.32
71630;BMP280;59479;51.902;8.212;2023-05-07T06:13:10;101137.66;;;15.24
71630;BMP280;59479;51.902;8.212;2023-05-07T06:15:35;101142.72;;;15.25
71630;BMP280;59479;51.902;8.212;2023-05-07T06:18:00;101146.09;;;15.24
71630;BMP280;59479;51.902;8.212;2023-05-07T06:20:26;101145.25;;;15.27
71630;BMP280;59479;51.902;8.212;2023-05-07T06:22:51;101156.16;;;15.33
71630;BMP280;59479;51.902;8.212;2023-05-07T06:25:16;101160.41;;;15.31
71630;BMP280;59479;51.902;8.212;2023-05-07T06:27:42;101163.63;;;15.42
71630;BMP280;59479;51.902;8.212;2023-05-07T06:30:08;101160.25;;;15.43
71630;BMP280;59479;51.902;8.212;2023-05-07T06:32:33;101160.25;;;15.45
71630;BMP280;59479;51.902;8.212;2023-05-07T06:34:58;101169.59;;;15.40
71630;BMP280;59479;51.902;8.212;2023-05-07T06:37:24;101170.41;;;15.40
71630;BMP280;59479;51.902;8.212;2023-05-07T06:39:49;101165.47;;;15.31
71630;BMP280;59479;51.902;8.212;2023-05-07T06:42:15;101166.91;;;15.52
71630;BMP280;59479;51.902;8.212;2023-05-07T06:44:40;101170.38;;;15.43
71630;BMP280;59479;51.902;8.212;2023-05-07T06:47:05;101177.13;;;15.44
71630;BMP280;59479;51.902;8.212;2023-05-07T06:49:31;101177.88;;;15.51
71630;BMP280;59479;51.902;8.212;2023-05-07T06:51:56;101198.13;;;15.54
71630;BMP280;59479;51.902;8.212;2023-05-07T06:54:22;101198.16;;;15.52
71630;BMP280;59479;51.902;8.212;2023-05-07T06:56:48;101198.88;;;15.63
71630;BMP280;59479;51.902;8.212;2023-05-07T06:59:13;101192.03;;;15.68
71630;BMP280;59479;51.902;8.212;2023-05-07T07:01:38;101192.03;;;15.68
71630;BMP280;59479;51.902;8.212;2023-05-07T07:04:03;101203.81;;;15.72
71630;BMP280;59479;51.902;8.212;2023-05-07T07:06:29;101198.75;;;15.72
71630;BMP280;59479;51.902;8.212;2023-05-07T07:08:56;101207.16;;;15.77
71630;BMP280;59479;51.902;8.212;2023-05-07T07:11:22;101195.34;;;15.74
71630;BMP280;59479;51.902;8.212;2023-05-07T07:13:47;101195.22;;;15.85
71630;BMP280;59479;51.902;8.212;2023-05-07T07:16:12;101191.81;;;15.87
71630;BMP280;59479;51.902;8.212;2023-05-07T07:18:38;101191.00;;;15.84
71630;BMP280;59479;51.902;8.212;2023-05-07T07:21:03;101189.38;;;15.81
71630;BMP280;59479;51.902;8.212;2023-05-07T07:23:29;101201.16;;;15.81
71630;BMP280;59479;51.902;8.212;2023-05-07T07:25:54;101200.22;;;15.91
71630;BMP280;59479;51.902;8.212;2023-05-07T07:28:21;101208.78;;;15.81
71630;BMP280;59479;51.902;8.212;2023-05-07T07:30:46;101194.44;;;15.81
71630;BMP280;59479;51.902;8.212;2023-05-07T07:33:11;101197.66;;;15.91
71630;BMP280;59479;51.902;8.212;2023-05-07T07:35:37;101200.22;;;15.91
71630;BMP280;59479;51.902;8.212;2023-05-07T07:38:02;101201.00;;;15.96
71630;BMP280;59479;51.902;8.212;2023-05-07T07:40:28;101198.44;;;15.96
71630;BMP280;59479;51.902;8.212;2023-05-07T07:42:53;101195.97;;;15.91
71630;BMP280;59479;51.902;8.212;2023-05-07T07:45:19;101195.06;;;15.97
71630;BMP280;59479;51.902;8.212;2023-05-07T07:47:45;101194.97;;;16.02
71630;BMP280;59479;51.902;8.212;2023-05-07T07:50:10;101190.81;;;15.97
71630;BMP280;59479;51.902;8.212;2023-05-07T07:52:36;101198.41;;;15.98
71630;BMP280;59479;51.902;8.212;2023-05-07T07:55:01;101199.19;;;16.03
71630;BMP280;59479;51.902;8.212;2023-05-07T07:57:27;101202.41;;;16.16
71630;BMP280;59479;51.902;8.212;2023-05-07T07:59:52;101204.25;;;16.05
71630;BMP280;59479;51.902;8.212;2023-05-07T08:02:17;101204.13;;;16.14
71630;BMP280;59479;51.902;8.212;2023-05-07T08:04:43;101207.56;;;16.10
71630;BMP280;59479;51.902;8.212;2023-05-07T08:07:11;101209.31;;;16.06
71630;BMP280;59479;51.902;8.212;2023-05-07T08:09:38;101208.31;;;16.16
71630;BMP280;59479;51.902;8.212;2023-05-07T08:12:06;101206.69;;;16.11
71630;BMP280;59479;51.902;8.212;2023-05-07T08:14:32;101198.25;;;16.10
71630;BMP280;59479;51.902;8.212;2023-05-07T08:16:58;101211.75;;;16.12
71630;BMP280;59479;51.902;8.212;2023-05-07T08:19:23;101204.09;;;16.20
71630;BMP280;59479;51.902;8.212;2023-05-07T08:21:49;101206.47;;;16.30
71630;BMP280;59479;51.902;8.212;2023-05-07T08:24:14;101197.97;;;16.31
71630;BMP280;59479;51.902;8.212;2023-05-07T08:26:40;101213.13;;;16.37
71630;BMP280;59479;51.902;8.212;2023-05-07T08:29:06;101209.63;;;16.45
71630;BMP280;59479;51.902;8.212;2023-05-07T08:31:31;101214.66;;;16.47
71630;BMP280;59479;51.902;8.212;2023-05-07T08:33:57;101208.78;;;16.46
71630;BMP280;59479;51.902;8.212;2023-05-07T08:36:23;101202.69;;;16.58
71630;BMP280;59479;51.902;8.212;2023-05-07T08:38:48;101193.38;;;16.57
71630;BMP280;59479;51.902;8.212;2023-05-07T08:41:14;101201.00;;;16.57
71630;BMP280;59479;51.902;8.212;2023-05-07T08:43:41;101190.78;;;16.60
71630;BMP280;59479;51.902;8.212;2023-05-07T08:46:08;101199.25;;;16.60
71630;BMP280;59479;51.902;8.212;2023-05-07T08:48:34;101204.28;;;16.62
71630;BMP280;59479;51.902;8.212;2023-05-07T08:51:00;101198.19;;;16.73
71630;BMP280;59479;51.902;8.212;2023-05-07T08:53:25;101214.97;;;16.82
71630;BMP280;59479;51.902;8.212;2023-05-07T08:55:51;101213.41;;;16.75
71630;BMP280;59479;51.902;8.212;2023-05-07T08:58:16;101208.13;;;16.86
71630;BMP280;59479;51.902;8.212;2023-05-07T09:00:42;101212.41;;;16.84
71630;BMP280;59479;51.902;8.212;2023-05-07T09:03:07;101205.47;;;16.92
71630;BMP280;59479;51.902;8.212;2023-05-07T09:05:33;101203.56;;;17.06
71630;BMP280;59479;51.902;8.212;2023-05-07T09:08:06;101209.28;;;17.16
71630;BMP280;59479;51.902;8.212;2023-05-07T09:10:34;101209.28;;;17.16
71630;BMP280;59479;51.902;8.212;2023-05-07T09:12:59;101196.56;;;17.19
71630;BMP280;59479;51.902;8.212;2023-05-07T09:15:26;101207.47;;;17.25
71630;BMP280;59479;51.902;8.212;2023-05-07T09:17:53;101212.41;;;17.32
71630;BMP280;59479;51.902;8.212;2023-05-07T09:20:18;101214.38;;;17.16
71630;BMP280;59479;51.902;8.212;2023-05-07T09:22:43;101217.28;;;16.96
71630;BMP280;59479;51.902;8.212;2023-05-07T09:25:09;101219.19;;;16.81
71630;BMP280;59479;51.902;8.212;2023-05-07T09:27:35;101217.41;;;16.87
71630;BMP280;59479;51.902;8.212;2023-05-07T09:30:09;101205.88;;;17.20
71630;BMP280;59479;51.902;8.212;2023-05-07T09:32:36;101206.66;;;17.23
71630;BMP280;59479;51.902;8.212;2023-05-07T09:35:03;101208.22;;;17.30
71630;BMP280;59479;51.902;8.212;2023-05-07T09:37:30;101206.22;;;17.47
71630;BMP280;59479;51.902;8.212;2023-05-07T09:39:56;101202.84;;;17.46
71630;BMP280;59479;51.902;8.212;2023-05-07T09:42:24;101204.28;;;17.58
71630;BMP280;59479;51.902;8.212;2023-05-07T09:44:51;101202.31;;;17.73
71630;BMP280;59479;51.902;8.212;2023-05-07T09:47:23;101200.41;;;17.82
71630;BMP280;59479;51.902;8.212;2023-05-07T09:49:49;101199.00;;;17.69
71630;BMP280;59479;51.902;8.212;2023-05-07T09:52:15;101199.56;;;17.82
71630;BMP280;59479;51.902;8.212;2023-05-07T09:54:41;101204.44;;;17.92
71630;BMP280;59479;51.902;8.212;2023-05-07T09:57:12;101200.09;;;17.97
71630;BMP280;59479;51.902;8.212;2023-05-07T09:59:39;101212.84;;;17.96
71630;BMP280;59479;51.902;8.212;2023-05-07T10:02:07;101211.16;;;17.96
71630;BMP280;59479;51.902;8.212;2023-05-07T10:04:35;101211.81;;;18.04
71630;BMP280;59479;51.902;8.212;2023-05-07T10:07:01;101213.66;;;17.98
71630;BMP280;59479;51.902;8.212;2023-05-07T10:09:26;101214.22;;;18.11
71630;BMP280;59479;51.902;8.212;2023-05-07T10:11:52;101213.06;;;18.26
71630;BMP280;59479;51.902;8.212;2023-05-07T10:14:20;101213.78;;;18.31
71630;BMP280;59479;51.902;8.212;2023-05-07T10:16:47;101206.09;;;18.34
71630;BMP280;59479;51.902;8.212;2023-05-07T10:19:12;101213.63;;;18.38
71630;BMP280;59479;51.902;8.212;2023-05-07T10:21:39;101207.50;;;18.47
71630;BMP280;59479;51.902;8.212;2023-05-07T10:24:16;101202.47;;;18.44
71630;BMP280;59479;51.902;8.212;2023-05-07T10:26:47;101208.25;;;18.50
71630;BMP280;59479;51.902;8.212;2023-05-07T10:34:54;101200.53;;;18.54
71630;BMP280;59479;51.902;8.212;2023-05-07T10:37:21;101207.88;;;18.66
71630;BMP280;59479;51.902;8.212;2023-05-07T10:39:47;101202.25;;;18.87
71630;BMP280;59479;51.902;8.212;2023-05-07T10:42:14;101206.41;;;18.91
71630;BMP280;59479;51.902;8.212;2023-05-07T10:44:40;101205.34;;;19.01
71630;BMP280;59479;51.902;8.212;2023-05-07T10:47:12;101206.22;;;19.00
71630;BMP280;59479;51.902;8.212;2023-05-07T10:52:22;101201.72;;;19.09
71630;BMP280;59479;51.902;8.212;2023-05-07T10:57:39;101200.78;;;19.12
71630;BMP280;59479;51.902;8.212;2023-05-07T11:05:23;101198.66;;;19.29
71630;BMP280;59479;51.902;8.212;2023-05-07T11:07:56;101200.41;;;19.27
71630;BMP280;59479;51.902;8.212;2023-05-07T11:10:21;101211.25;;;19.35
71630;BMP280;59479;51.902;8.212;2023-05-07T11:12:48;101210.56;;;19.28
71630;BMP280;59479;51.902;8.212;2023-05-07T11:15:15;101206.94;;;19.37
71630;BMP280;59479;51.902;8.212;2023-05-07T11:18:00;101200.75;;;19.45
71630;BMP280;59479;51.902;8.212;2023-05-07T11:20:44;101192.28;;;19.44
71630;BMP280;59479;51.902;8.212;2023-05-07T11:25:59;101188.94;;;19.73
71630;BMP280;59479;51.902;8.212;2023-05-07T11:28:27;101192.38;;;19.70
71630;BMP280;59479;51.902;8.212;2023-05-07T11:30:53;101187.75;;;19.84
71630;BMP280;59479;51.902;8.212;2023-05-07T11:33:19;101190.06;;;19.93
71630;BMP280;59479;51.902;8.212;2023-05-07T11:35:45;101188.00;;;20.04
71630;BMP280;59479;51.902;8.212;2023-05-07T11:38:11;101184.47;;;20.09
71630;BMP280;59479;51.902;8.212;2023-05-07T11:40:50;101184.97;;;20.20
71630;BMP280;59479;51.902;8.212;2023-05-07T11:43:16;101185.09;;;20.16
71630;BMP280;59479;51.902;8.212;2023-05-07T11:45:41;101181.53;;;20.21
71630;BMP280;59479;51.902;8.212;2023-05-07T11:48:06;101183.00;;;20.28
71630;BMP280;59479;51.902;8.212;2023-05-07T11:50:32;101177.22;;;20.23
71630;BMP280;59479;51.902;8.212;2023-05-07T11:52:57;101184.00;;;20.24
71630;BMP280;59479;51.902;8.212;2023-05-07T11:55:24;101173.47;;;20.34
71630;BMP280;59479;51.902;8.212;2023-05-07T11:57:50;101181.59;;;20.45
71630;BMP280;59479;51.902;8.212;2023-05-07T12:00:16;101182.34;;;20.49
71630;BMP280;59479;51.902;8.212;2023-05-07T12:02:42;101176.75;;;20.63
71630;BMP280;59479;51.902;8.212;2023-05-07T12:05:07;101194.78;;;20.59
71630;BMP280;59479;51.902;8.212;2023-05-07T12:07:34;101171.63;;;20.63
71630;BMP280;59479;51.902;8.212;2023-05-07T12:09:59;101184.09;;;20.47
71630;BMP280;59479;51.902;8.212;2023-05-07T12:12:24;101176.09;;;20.57
71630;BMP280;59479;51.902;8.212;2023-05-07T12:14:52;101186.31;;;20.57
71630;BMP280;59479;51.902;8.212;2023-05-07T12:17:17;101181.13;;;20.60
71630;BMP280;59479;51.902;8.212;2023-05-07T12:19:43;101189.50;;;20.65
71630;BMP280;59479;51.902;8.212;2023-05-07T12:22:10;101189.19;;;20.74
71630;BMP280;59479;51.902;8.212;2023-05-07T12:24:58;101180.56;;;20.78
71630;BMP280;59479;51.902;8.212;2023-05-07T12:27:25;101178.78;;;20.80
71630;BMP280;59479;51.902;8.212;2023-05-07T12:29:50;101186.50;;;20.78
71630;BMP280;59479;51.902;8.212;2023-05-07T12:32:17;101185.41;;;20.85
71630;BMP280;59479;51.902;8.212;2023-05-07T12:34:43;101185.19;;;20.93
71630;BMP280;59479;51.902;8.212;2023-05-07T12:37:08;101180.44;;;21.07
71630;BMP280;59479;51.902;8.212;2023-05-07T12:39:35;101182.47;;;21.21
71630;BMP280;59479;51.902;8.212;2023-05-07T12:42:00;101186.31;;;21.33
71630;BMP280;59479;51.902;8.212;2023-05-07T12:44:31;101177.69;;;21.35
71630;BMP280;59479;51.902;8.212;2023-05-07T12:46:58;101187.06;;;21.36
71630;BMP280;59479;51.902;8.212;2023-05-07T12:49:23;101187.88;;;21.37
71630;BMP280;59479;51.902;8.212;2023-05-07T12:51:50;101185.28;;;21.38
71630;BMP280;59479;51.902;8.212;2023-05-07T12:54:32;101184.25;;;21.44
71630;BMP280;59479;51.902;8.212;2023-05-07T12:57:04;101179.75;;;21.50
71630;BMP280;59479;51.902;8.212;2023-05-07T12:59:32;101197.94;;;21.43
71630;BMP280;59479;51.902;8.212;2023-05-07T13:01:57;101185.81;;;21.48
71630;BMP280;59479;51.902;8.212;2023-05-07T13:04:24;101183.88;;;21.54
71630;BMP280;59479;51.902;8.212;2023-05-07T13:06:49;101198.34;;;21.31
71630;BMP280;59479;51.902;8.212;2023-05-07T13:09:15;101191.09;;;21.43
71630;BMP280;59479;51.902;8.212;2023-05-07T13:11:40;101189.97;;;21.50
71630;BMP280;59479;51.902;8.212;2023-05-07T13:14:05;101192.34;;;21.56
71630;BMP280;59479;51.902;8.212;2023-05-07T13:16:31;101192.34;;;21.56
71630;BMP280;59479;51.902;8.212;2023-05-07T13:18:56;101192.56;;;21.73
71630;BMP280;59479;51.902;8.212;2023-05-07T13:21:22;101196.75;;;21.74
71630;BMP280;59479;51.902;8.212;2023-05-07T13:23:47;101190.31;;;21.87
71630;BMP280;59479;51.902;8.212;2023-05-07T13:26:12;101183.34;;;21.90
71630;BMP280;59479;51.902;8.212;2023-05-07T13:28:38;101189.66;;;21.82
71630;BMP280;59479;51.902;8.212;2023-05-07T13:31:03;101198.28;;;21.79
71630;BMP280;59479;51.902;8.212;2023-05-07T13:33:28;101204.13;;;21.83
71630;BMP280;59479;51.902;8.212;2023-05-07T13:35:53;101201.28;;;21.90
71630;BMP280;59479;51.902;8.212;2023-05-07T13:38:19;101187.66;;;21.67
71630;BMP280;59479;51.902;8.212;2023-05-07T13:40:44;101183.03;;;21.76
71630;BMP280;59479;51.902;8.212;2023-05-07T13:43:10;101191.38;;;21.81
71630;BMP280;59479;51.902;8.212;2023-05-07T13:45:35;101192.22;;;21.82
71630;BMP280;59479;51.902;8.212;2023-05-07T13:48:00;101187.94;;;21.82
71630;BMP280;59479;51.902;8.212;2023-05-07T13:50:26;101198.75;;;21.89
71630;BMP280;59479;51.902;8.212;2023-05-07T13:52:52;101183.00;;;21.78
71630;BMP280;59479;51.902;8.212;2023-05-07T13:55:18;101188.81;;;21.81
71630;BMP280;59479;51.902;8.212;2023-05-07T13:57:43;101185.03;;;21.91
71630;BMP280;59479;51.902;8.212;2023-05-07T14:00:09;101191.91;;;21.91
71630;BMP280;59479;51.902;8.212;2023-05-07T14:02:35;101182.31;;;21.95
71630;BMP280;59479;51.902;8.212;2023-05-07T14:05:00;101181.75;;;21.88
71630;BMP280;59479;51.902;8.212;2023-05-07T14:07:25;101188.41;;;21.92
71630;BMP280;59479;51.902;8.212;2023-05-07T14:09:51;101178.13;;;21.93
71630;BMP280;59479;51.902;8.212;2023-05-07T14:12:16;101187.50;;;21.94